KPHD/PHD METAR and TAF weather

Enter ICAO airport designator
Station Type Date Time Source
KPHD METAR 2019/12/08 23:53 UTC NOAA

KPHD 082353Z AUTO 14006KT 10SM OVC065 09/02 A3007 RMK AO2 SLP188 T00940022 10100 20083 58009


Station Type Date Time Source
KPHD Decoded METAR 2019/12/08 23:53 UTC NOAA

NEW PHILADELPHIA CLEVER FLD, OH, United States (KPHD) 40-28N 81-25W 272M
Dec 08, 2019 - 06:53 PM EST / 2019.12.08 2353 UTC
Wind: from the SE (140 degrees) at 7 MPH (6 KT):0
Visibility: 10 mile(s):0
Sky conditions: overcast
Temperature: 48.9 F (9.4 C)
Dew Point: 36.0 F (2.2 C)
Relative Humidity: 60%
Pressure (altimeter): 30.07 in. Hg (1018 hPa)
Pressure tendency: 0.03 inches (0.9 hPa) lower than three hours ago
ob: KPHD 082353Z AUTO 14006KT 10SM OVC065 09/02 A3007 RMK AO2 SLP188 T00940022 10100 20083 58009
cycle: 0

Station Type Date Time Source
KPHD TAF UTC NOAA

Error!

Example: see airport list